sensor_id;sensor_type;location;lat;lon;timestamp;P1;durP1;ratioP1;P2;durP2;ratioP2
35835;SDS011;21955;50.580;7.228;2022-07-30T00:01:01;5.85;;;2.53;;
35835;SDS011;21955;50.580;7.228;2022-07-30T00:03:28;7.13;;;2.53;;
35835;SDS011;21955;50.580;7.228;2022-07-30T00:05:56;6.88;;;3.00;;
35835;SDS011;21955;50.580;7.228;2022-07-30T00:08:23;5.93;;;2.50;;
35835;SDS011;21955;50.580;7.228;2022-07-30T00:10:50;10.48;;;2.70;;
35835;SDS011;21955;50.580;7.228;2022-07-30T00:13:17;5.38;;;2.70;;
35835;SDS011;21955;50.580;7.228;2022-07-30T00:15:45;5.22;;;2.55;;
35835;SDS011;21955;50.580;7.228;2022-07-30T00:18:12;5.20;;;2.92;;
35835;SDS011;21955;50.580;7.228;2022-07-30T00:20:39;7.10;;;3.00;;
35835;SDS011;21955;50.580;7.228;2022-07-30T00:23:08;4.55;;;2.70;;
35835;SDS011;21955;50.580;7.228;2022-07-30T00:25:35;5.40;;;2.67;;
35835;SDS011;21955;50.580;7.228;2022-07-30T00:28:02;7.00;;;3.00;;
35835;SDS011;21955;50.580;7.228;2022-07-30T00:30:29;9.10;;;3.20;;
35835;SDS011;21955;50.580;7.228;2022-07-30T00:32:57;4.72;;;2.65;;
35835;SDS011;21955;50.580;7.228;2022-07-30T00:35:24;8.10;;;2.75;;
35835;SDS011;21955;50.580;7.228;2022-07-30T00:37:51;4.70;;;2.55;;
35835;SDS011;21955;50.580;7.228;2022-07-30T00:40:19;5.68;;;2.65;;
35835;SDS011;21955;50.580;7.228;2022-07-30T00:42:47;6.00;;;2.70;;
35835;SDS011;21955;50.580;7.228;2022-07-30T00:45:14;6.30;;;2.80;;
35835;SDS011;21955;50.580;7.228;2022-07-30T00:47:41;5.80;;;2.80;;
35835;SDS011;21955;50.580;7.228;2022-07-30T00:50:10;5.82;;;3.10;;
35835;SDS011;21955;50.580;7.228;2022-07-30T00:52:37;6.53;;;3.20;;
35835;SDS011;21955;50.580;7.228;2022-07-30T00:55:06;6.63;;;3.10;;
35835;SDS011;21955;50.580;7.228;2022-07-30T00:57:35;5.22;;;2.97;;
35835;SDS011;21955;50.580;7.228;2022-07-30T01:00:02;6.18;;;3.10;;
35835;SDS011;21955;50.580;7.228;2022-07-30T01:02:30;6.70;;;3.00;;
35835;SDS011;21955;50.580;7.228;2022-07-30T01:04:57;5.75;;;3.05;;
35835;SDS011;21955;50.580;7.228;2022-07-30T01:07:24;6.53;;;2.90;;
35835;SDS011;21955;50.580;7.228;2022-07-30T01:09:51;7.70;;;2.83;;
35835;SDS011;21955;50.580;7.228;2022-07-30T01:12:19;7.23;;;2.93;;
35835;SDS011;21955;50.580;7.228;2022-07-30T01:14:48;6.07;;;2.78;;
35835;SDS011;21955;50.580;7.228;2022-07-30T01:17:15;4.93;;;2.78;;
35835;SDS011;21955;50.580;7.228;2022-07-30T01:19:42;5.32;;;2.80;;
35835;SDS011;21955;50.580;7.228;2022-07-30T01:22:15;5.10;;;2.70;;
35835;SDS011;21955;50.580;7.228;2022-07-30T01:24:43;6.32;;;3.00;;
35835;SDS011;21955;50.580;7.228;2022-07-30T01:27:14;5.93;;;2.92;;
35835;SDS011;21955;50.580;7.228;2022-07-30T01:29:42;4.47;;;2.88;;
35835;SDS011;21955;50.580;7.228;2022-07-30T01:32:11;6.85;;;2.78;;
35835;SDS011;21955;50.580;7.228;2022-07-30T01:34:39;4.43;;;2.72;;
35835;SDS011;21955;50.580;7.228;2022-07-30T01:37:08;6.50;;;3.03;;
35835;SDS011;21955;50.580;7.228;2022-07-30T01:39:36;5.38;;;2.78;;
35835;SDS011;21955;50.580;7.228;2022-07-30T01:42:03;6.95;;;2.70;;
35835;SDS011;21955;50.580;7.228;2022-07-30T01:44:34;4.35;;;2.80;;
35835;SDS011;21955;50.580;7.228;2022-07-30T01:47:02;4.22;;;2.85;;
35835;SDS011;21955;50.580;7.228;2022-07-30T01:49:29;6.68;;;3.03;;
35835;SDS011;21955;50.580;7.228;2022-07-30T01:51:57;4.90;;;3.03;;
35835;SDS011;21955;50.580;7.228;2022-07-30T01:54:24;5.53;;;2.90;;
35835;SDS011;21955;50.580;7.228;2022-07-30T01:56:53;5.85;;;3.20;;
35835;SDS011;21955;50.580;7.228;2022-07-30T01:59:20;6.45;;;3.20;;
35835;SDS011;21955;50.580;7.228;2022-07-30T02:01:50;6.53;;;3.00;;
35835;SDS011;21955;50.580;7.228;2022-07-30T02:04:17;6.53;;;3.10;;
35835;SDS011;21955;50.580;7.228;2022-07-30T02:06:45;5.55;;;3.30;;
35835;SDS011;21955;50.580;7.228;2022-07-30T02:09:14;6.40;;;3.30;;
35835;SDS011;21955;50.580;7.228;2022-07-30T02:11:43;5.43;;;3.13;;
35835;SDS011;21955;50.580;7.228;2022-07-30T02:14:28;5.50;;;2.75;;
35835;SDS011;21955;50.580;7.228;2022-07-30T02:16:57;5.80;;;3.00;;
35835;SDS011;21955;50.580;7.228;2022-07-30T02:19:28;5.63;;;3.00;;
35835;SDS011;21955;50.580;7.228;2022-07-30T02:21:58;5.40;;;2.90;;
35835;SDS011;21955;50.580;7.228;2022-07-30T02:24:28;5.63;;;3.03;;
35835;SDS011;21955;50.580;7.228;2022-07-30T02:26:58;5.20;;;3.10;;
35835;SDS011;21955;50.580;7.228;2022-07-30T02:29:27;7.43;;;3.20;;
35835;SDS011;21955;50.580;7.228;2022-07-30T02:31:54;6.13;;;3.40;;
35835;SDS011;21955;50.580;7.228;2022-07-30T02:34:24;6.82;;;3.08;;
35835;SDS011;21955;50.580;7.228;2022-07-30T02:36:51;7.13;;;3.40;;
35835;SDS011;21955;50.580;7.228;2022-07-30T02:39:19;8.20;;;3.42;;
35835;SDS011;21955;50.580;7.228;2022-07-30T02:41:47;5.68;;;3.13;;
35835;SDS011;21955;50.580;7.228;2022-07-30T02:44:14;6.53;;;3.35;;
35835;SDS011;21955;50.580;7.228;2022-07-30T02:46:42;6.03;;;3.22;;
35835;SDS011;21955;50.580;7.228;2022-07-30T02:49:11;7.53;;;3.30;;
35835;SDS011;21955;50.580;7.228;2022-07-30T02:51:41;7.40;;;3.13;;
35835;SDS011;21955;50.580;7.228;2022-07-30T02:54:08;4.40;;;3.10;;
35835;SDS011;21955;50.580;7.228;2022-07-30T02:56:35;7.85;;;3.10;;
35835;SDS011;21955;50.580;7.228;2022-07-30T02:59:04;5.85;;;3.17;;
35835;SDS011;21955;50.580;7.228;2022-07-30T03:01:32;6.10;;;2.90;;
35835;SDS011;21955;50.580;7.228;2022-07-30T03:03:59;6.35;;;3.00;;
35835;SDS011;21955;50.580;7.228;2022-07-30T03:06:27;6.40;;;3.30;;
35835;SDS011;21955;50.580;7.228;2022-07-30T03:08:57;6.33;;;3.00;;
35835;SDS011;21955;50.580;7.228;2022-07-30T03:11:25;5.22;;;2.90;;
35835;SDS011;21955;50.580;7.228;2022-07-30T03:13:52;5.20;;;3.15;;
35835;SDS011;21955;50.580;7.228;2022-07-30T03:16:20;6.70;;;3.30;;
35835;SDS011;21955;50.580;7.228;2022-07-30T03:18:48;6.97;;;3.40;;
35835;SDS011;21955;50.580;7.228;2022-07-30T03:21:15;4.57;;;2.97;;
35835;SDS011;21955;50.580;7.228;2022-07-30T03:23:43;4.82;;;3.00;;
35835;SDS011;21955;50.580;7.228;2022-07-30T03:26:14;4.90;;;3.17;;
35835;SDS011;21955;50.580;7.228;2022-07-30T03:28:41;5.57;;;3.10;;
35835;SDS011;21955;50.580;7.228;2022-07-30T03:31:09;5.85;;;3.00;;
35835;SDS011;21955;50.580;7.228;2022-07-30T03:33:37;6.55;;;3.22;;
35835;SDS011;21955;50.580;7.228;2022-07-30T03:36:04;6.17;;;3.07;;
35835;SDS011;21955;50.580;7.228;2022-07-30T03:38:31;7.93;;;3.22;;
35835;SDS011;21955;50.580;7.228;2022-07-30T03:40:59;7.22;;;3.35;;
35835;SDS011;21955;50.580;7.228;2022-07-30T03:43:28;6.25;;;3.47;;
35835;SDS011;21955;50.580;7.228;2022-07-30T03:45:55;6.13;;;2.97;;
35835;SDS011;21955;50.580;7.228;2022-07-30T03:48:23;6.03;;;3.20;;
35835;SDS011;21955;50.580;7.228;2022-07-30T03:50:51;6.13;;;3.20;;
35835;SDS011;21955;50.580;7.228;2022-07-30T03:53:19;6.80;;;3.13;;
35835;SDS011;21955;50.580;7.228;2022-07-30T03:55:48;5.85;;;3.10;;
35835;SDS011;21955;50.580;7.228;2022-07-30T03:58:16;4.75;;;3.05;;
35835;SDS011;21955;50.580;7.228;2022-07-30T04:00:47;5.80;;;3.10;;
35835;SDS011;21955;50.580;7.228;2022-07-30T04:03:22;6.40;;;3.50;;
35835;SDS011;21955;50.580;7.228;2022-07-30T04:05:49;5.47;;;3.20;;
35835;SDS011;21955;50.580;7.228;2022-07-30T04:08:16;6.35;;;3.30;;
35835;SDS011;21955;50.580;7.228;2022-07-30T04:10:44;5.53;;;3.03;;
35835;SDS011;21955;50.580;7.228;2022-07-30T04:13:11;5.95;;;3.28;;
35835;SDS011;21955;50.580;7.228;2022-07-30T04:15:40;5.65;;;3.28;;
35835;SDS011;21955;50.580;7.228;2022-07-30T04:18:10;6.25;;;3.25;;
35835;SDS011;21955;50.580;7.228;2022-07-30T04:20:38;6.57;;;3.20;;
35835;SDS011;21955;50.580;7.228;2022-07-30T04:23:06;6.10;;;3.30;;
35835;SDS011;21955;50.580;7.228;2022-07-30T04:25:33;5.03;;;3.30;;
35835;SDS011;21955;50.580;7.228;2022-07-30T04:28:01;5.15;;;2.90;;
35835;SDS011;21955;50.580;7.228;2022-07-30T04:30:29;6.32;;;3.10;;
35835;SDS011;21955;50.580;7.228;2022-07-30T04:32:57;4.85;;;3.00;;
35835;SDS011;21955;50.580;7.228;2022-07-30T04:35:27;5.30;;;3.15;;
35835;SDS011;21955;50.580;7.228;2022-07-30T04:37:54;4.50;;;3.00;;
35835;SDS011;21955;50.580;7.228;2022-07-30T04:40:21;4.35;;;3.00;;
35835;SDS011;21955;50.580;7.228;2022-07-30T04:42:48;5.50;;;3.05;;
35835;SDS011;21955;50.580;7.228;2022-07-30T04:45:15;4.90;;;3.05;;
35835;SDS011;21955;50.580;7.228;2022-07-30T04:47:44;6.40;;;3.20;;
35835;SDS011;21955;50.580;7.228;2022-07-30T04:50:11;4.82;;;2.75;;
35835;SDS011;21955;50.580;7.228;2022-07-30T04:52:40;5.53;;;2.90;;
35835;SDS011;21955;50.580;7.228;2022-07-30T04:55:08;7.47;;;2.80;;
35835;SDS011;21955;50.580;7.228;2022-07-30T04:57:37;5.55;;;2.80;;
35835;SDS011;21955;50.580;7.228;2022-07-30T05:00:07;5.90;;;2.80;;
35835;SDS011;21955;50.580;7.228;2022-07-30T05:02:34;5.07;;;2.90;;
35835;SDS011;21955;50.580;7.228;2022-07-30T05:05:03;5.45;;;2.85;;
35835;SDS011;21955;50.580;7.228;2022-07-30T05:07:32;5.25;;;2.97;;
35835;SDS011;21955;50.580;7.228;2022-07-30T05:10:00;4.55;;;3.05;;
35835;SDS011;21955;50.580;7.228;2022-07-30T05:12:31;7.60;;;3.00;;
35835;SDS011;21955;50.580;7.228;2022-07-30T05:14:58;8.00;;;3.65;;
35835;SDS011;21955;50.580;7.228;2022-07-30T05:17:25;5.20;;;3.13;;
35835;SDS011;21955;50.580;7.228;2022-07-30T05:19:52;6.22;;;3.60;;
35835;SDS011;21955;50.580;7.228;2022-07-30T05:22:19;6.05;;;3.60;;
35835;SDS011;21955;50.580;7.228;2022-07-30T05:24:46;6.75;;;3.60;;
35835;SDS011;21955;50.580;7.228;2022-07-30T05:27:15;5.38;;;3.50;;
35835;SDS011;21955;50.580;7.228;2022-07-30T05:29:44;5.30;;;3.35;;
35835;SDS011;21955;50.580;7.228;2022-07-30T05:32:12;6.05;;;3.65;;
35835;SDS011;21955;50.580;7.228;2022-07-30T05:34:39;6.18;;;3.53;;
35835;SDS011;21955;50.580;7.228;2022-07-30T05:37:06;7.00;;;3.60;;
35835;SDS011;21955;50.580;7.228;2022-07-30T05:39:33;5.70;;;3.25;;
35835;SDS011;21955;50.580;7.228;2022-07-30T05:42:00;5.00;;;3.10;;
35835;SDS011;21955;50.580;7.228;2022-07-30T05:44:29;6.38;;;3.40;;
35835;SDS011;21955;50.580;7.228;2022-07-30T05:46:56;7.27;;;3.23;;
35835;SDS011;21955;50.580;7.228;2022-07-30T05:49:23;7.70;;;3.53;;
35835;SDS011;21955;50.580;7.228;2022-07-30T05:51:50;7.00;;;3.17;;
35835;SDS011;21955;50.580;7.228;2022-07-30T05:54:17;5.40;;;3.08;;
35835;SDS011;21955;50.580;7.228;2022-07-30T05:56:44;5.30;;;3.10;;
35835;SDS011;21955;50.580;7.228;2022-07-30T05:59:11;6.55;;;3.20;;
35835;SDS011;21955;50.580;7.228;2022-07-30T06:01:40;5.72;;;2.83;;
35835;SDS011;21955;50.580;7.228;2022-07-30T06:04:07;4.95;;;3.03;;
35835;SDS011;21955;50.580;7.228;2022-07-30T06:06:34;7.63;;;2.90;;
35835;SDS011;21955;50.580;7.228;2022-07-30T06:09:02;8.10;;;3.13;;
35835;SDS011;21955;50.580;7.228;2022-07-30T06:11:29;6.93;;;3.10;;
35835;SDS011;21955;50.580;7.228;2022-07-30T06:13:56;5.13;;;3.10;;
35835;SDS011;21955;50.580;7.228;2022-07-30T06:16:23;6.05;;;3.00;;
35835;SDS011;21955;50.580;7.228;2022-07-30T06:18:55;5.53;;;2.95;;
35835;SDS011;21955;50.580;7.228;2022-07-30T06:21:22;5.82;;;3.03;;
35835;SDS011;21955;50.580;7.228;2022-07-30T06:23:49;7.63;;;2.93;;
35835;SDS011;21955;50.580;7.228;2022-07-30T06:26:16;6.40;;;3.10;;
35835;SDS011;21955;50.580;7.228;2022-07-30T06:28:43;6.78;;;3.13;;
35835;SDS011;21955;50.580;7.228;2022-07-30T06:31:10;6.35;;;2.95;;
35835;SDS011;21955;50.580;7.228;2022-07-30T06:33:38;6.47;;;2.90;;
35835;SDS011;21955;50.580;7.228;2022-07-30T06:36:08;6.97;;;2.80;;
35835;SDS011;21955;50.580;7.228;2022-07-30T06:38:35;5.20;;;2.80;;
35835;SDS011;21955;50.580;7.228;2022-07-30T06:41:02;8.17;;;3.87;;
35835;SDS011;21955;50.580;7.228;2022-07-30T06:43:29;8.93;;;3.92;;
35835;SDS011;21955;50.580;7.228;2022-07-30T06:45:56;7.00;;;4.15;;
35835;SDS011;21955;50.580;7.228;2022-07-30T06:48:24;7.57;;;4.15;;
35835;SDS011;21955;50.580;7.228;2022-07-30T06:50:53;8.80;;;4.60;;
35835;SDS011;21955;50.580;7.228;2022-07-30T06:53:21;9.32;;;4.90;;
35835;SDS011;21955;50.580;7.228;2022-07-30T06:55:49;9.05;;;4.55;;
35835;SDS011;21955;50.580;7.228;2022-07-30T06:58:16;10.80;;;4.93;;
35835;SDS011;21955;50.580;7.228;2022-07-30T07:00:43;9.50;;;4.80;;
35835;SDS011;21955;50.580;7.228;2022-07-30T07:03:10;10.52;;;5.07;;
35835;SDS011;21955;50.580;7.228;2022-07-30T07:05:37;8.77;;;4.63;;
35835;SDS011;21955;50.580;7.228;2022-07-30T07:08:04;11.10;;;5.03;;
35835;SDS011;21955;50.580;7.228;2022-07-30T07:10:32;9.57;;;4.93;;
35835;SDS011;21955;50.580;7.228;2022-07-30T07:12:59;12.10;;;5.30;;
35835;SDS011;21955;50.580;7.228;2022-07-30T07:15:27;10.25;;;4.93;;
35835;SDS011;21955;50.580;7.228;2022-07-30T07:17:54;10.68;;;4.80;;
35835;SDS011;21955;50.580;7.228;2022-07-30T07:20:21;9.65;;;5.03;;
35835;SDS011;21955;50.580;7.228;2022-07-30T07:22:48;9.35;;;4.90;;
35835;SDS011;21955;50.580;7.228;2022-07-30T07:25:15;10.52;;;5.20;;
35835;SDS011;21955;50.580;7.228;2022-07-30T07:27:44;10.45;;;5.10;;
35835;SDS011;21955;50.580;7.228;2022-07-30T07:30:11;10.52;;;5.20;;
35835;SDS011;21955;50.580;7.228;2022-07-30T07:32:38;11.35;;;5.10;;
35835;SDS011;21955;50.580;7.228;2022-07-30T07:35:06;9.80;;;5.25;;
35835;SDS011;21955;50.580;7.228;2022-07-30T07:37:33;9.98;;;4.95;;
35835;SDS011;21955;50.580;7.228;2022-07-30T07:40:01;10.98;;;4.50;;
35835;SDS011;21955;50.580;7.228;2022-07-30T07:42:28;11.85;;;5.30;;
35835;SDS011;21955;50.580;7.228;2022-07-30T07:44:56;10.45;;;4.50;;
35835;SDS011;21955;50.580;7.228;2022-07-30T07:47:23;9.45;;;4.63;;
35835;SDS011;21955;50.580;7.228;2022-07-30T07:49:53;9.05;;;4.43;;
35835;SDS011;21955;50.580;7.228;2022-07-30T07:52:20;9.48;;;4.25;;
35835;SDS011;21955;50.580;7.228;2022-07-30T07:54:47;8.18;;;4.18;;
35835;SDS011;21955;50.580;7.228;2022-07-30T07:57:14;8.77;;;4.30;;
35835;SDS011;21955;50.580;7.228;2022-07-30T07:59:42;9.55;;;4.50;;
35835;SDS011;21955;50.580;7.228;2022-07-30T08:02:10;11.05;;;4.15;;
35835;SDS011;21955;50.580;7.228;2022-07-30T08:04:37;7.60;;;3.92;;
35835;SDS011;21955;50.580;7.228;2022-07-30T08:07:04;8.25;;;4.00;;
35835;SDS011;21955;50.580;7.228;2022-07-30T08:09:31;7.82;;;3.78;;
35835;SDS011;21955;50.580;7.228;2022-07-30T08:11:58;8.20;;;3.70;;
35835;SDS011;21955;50.580;7.228;2022-07-30T08:14:26;10.43;;;4.47;;
35835;SDS011;21955;50.580;7.228;2022-07-30T08:16:53;8.80;;;3.77;;
35835;SDS011;21955;50.580;7.228;2022-07-30T08:19:21;5.47;;;3.30;;
35835;SDS011;21955;50.580;7.228;2022-07-30T08:21:48;9.00;;;3.58;;
35835;SDS011;21955;50.580;7.228;2022-07-30T08:24:16;9.00;;;3.60;;
35835;SDS011;21955;50.580;7.228;2022-07-30T08:26:44;8.10;;;3.50;;
35835;SDS011;21955;50.580;7.228;2022-07-30T08:29:11;7.75;;;3.42;;
35835;SDS011;21955;50.580;7.228;2022-07-30T08:31:38;7.90;;;3.20;;
35835;SDS011;21955;50.580;7.228;2022-07-30T08:34:05;6.65;;;3.63;;
35835;SDS011;21955;50.580;7.228;2022-07-30T08:36:36;8.27;;;3.80;;
35835;SDS011;21955;50.580;7.228;2022-07-30T08:39:03;8.57;;;3.70;;
35835;SDS011;21955;50.580;7.228;2022-07-30T08:41:30;7.03;;;3.30;;
35835;SDS011;21955;50.580;7.228;2022-07-30T08:43:58;9.95;;;3.10;;
35835;SDS011;21955;50.580;7.228;2022-07-30T08:46:29;7.03;;;3.53;;
35835;SDS011;21955;50.580;7.228;2022-07-30T08:48:57;5.95;;;3.00;;
35835;SDS011;21955;50.580;7.228;2022-07-30T08:51:24;9.02;;;3.00;;
35835;SDS011;21955;50.580;7.228;2022-07-30T08:53:53;10.50;;;4.25;;
35835;SDS011;21955;50.580;7.228;2022-07-30T08:56:21;7.00;;;3.03;;
35835;SDS011;21955;50.580;7.228;2022-07-30T08:58:48;6.25;;;3.17;;
35835;SDS011;21955;50.580;7.228;2022-07-30T09:01:15;6.68;;;3.20;;
35835;SDS011;21955;50.580;7.228;2022-07-30T09:03:43;7.00;;;3.17;;
35835;SDS011;21955;50.580;7.228;2022-07-30T09:06:10;6.82;;;3.08;;
35835;SDS011;21955;50.580;7.228;2022-07-30T09:08:39;7.57;;;3.45;;
35835;SDS011;21955;50.580;7.228;2022-07-30T09:11:08;9.33;;;3.20;;
35835;SDS011;21955;50.580;7.228;2022-07-30T09:13:36;6.07;;;3.03;;
35835;SDS011;21955;50.580;7.228;2022-07-30T09:16:04;7.35;;;3.33;;
35835;SDS011;21955;50.580;7.228;2022-07-30T09:18:34;8.45;;;3.40;;
35835;SDS011;21955;50.580;7.228;2022-07-30T09:21:12;6.70;;;2.80;;
35835;SDS011;21955;50.580;7.228;2022-07-30T09:23:40;9.73;;;3.65;;
35835;SDS011;21955;50.580;7.228;2022-07-30T09:26:22;6.63;;;2.88;;
35835;SDS011;21955;50.580;7.228;2022-07-30T09:28:49;6.40;;;3.07;;
35835;SDS011;21955;50.580;7.228;2022-07-30T09:31:16;7.75;;;3.20;;
35835;SDS011;21955;50.580;7.228;2022-07-30T09:33:45;8.77;;;3.55;;
35835;SDS011;21955;50.580;7.228;2022-07-30T09:36:26;7.60;;;3.38;;
35835;SDS011;21955;50.580;7.228;2022-07-30T09:39:29;8.15;;;3.60;;
35835;SDS011;21955;50.580;7.228;2022-07-30T09:41:59;9.20;;;3.57;;
35835;SDS011;21955;50.580;7.228;2022-07-30T09:44:27;8.82;;;3.58;;
35835;SDS011;21955;50.580;7.228;2022-07-30T09:46:55;8.40;;;3.40;;
35835;SDS011;21955;50.580;7.228;2022-07-30T09:49:23;7.07;;;2.90;;
35835;SDS011;21955;50.580;7.228;2022-07-30T09:51:51;8.70;;;3.00;;
35835;SDS011;21955;50.580;7.228;2022-07-30T09:54:46;8.32;;;3.10;;
35835;SDS011;21955;50.580;7.228;2022-07-30T09:57:15;8.63;;;3.67;;
35835;SDS011;21955;50.580;7.228;2022-07-30T09:59:43;9.27;;;4.00;;
35835;SDS011;21955;50.580;7.228;2022-07-30T10:02:10;11.48;;;3.72;;
35835;SDS011;21955;50.580;7.228;2022-07-30T10:04:37;7.32;;;3.17;;
35835;SDS011;21955;50.580;7.228;2022-07-30T10:07:05;7.53;;;3.20;;
35835;SDS011;21955;50.580;7.228;2022-07-30T10:09:42;7.05;;;3.03;;
35835;SDS011;21955;50.580;7.228;2022-07-30T10:12:12;7.43;;;3.00;;
35835;SDS011;21955;50.580;7.228;2022-07-30T10:14:43;9.10;;;3.35;;
35835;SDS011;21955;50.580;7.228;2022-07-30T10:17:11;9.65;;;2.95;;
35835;SDS011;21955;50.580;7.228;2022-07-30T10:19:38;10.88;;;3.08;;
35835;SDS011;21955;50.580;7.228;2022-07-30T10:22:05;8.85;;;3.22;;
35835;SDS011;21955;50.580;7.228;2022-07-30T10:24:32;9.32;;;3.78;;
35835;SDS011;21955;50.580;7.228;2022-07-30T10:27:01;9.52;;;3.20;;
35835;SDS011;21955;50.580;7.228;2022-07-30T10:29:28;5.90;;;2.70;;
35835;SDS011;21955;50.580;7.228;2022-07-30T10:31:57;6.10;;;2.77;;
35835;SDS011;21955;50.580;7.228;2022-07-30T10:34:26;7.00;;;2.50;;
35835;SDS011;21955;50.580;7.228;2022-07-30T10:36:54;8.13;;;2.45;;
35835;SDS011;21955;50.580;7.228;2022-07-30T10:39:26;6.63;;;2.70;;
35835;SDS011;21955;50.580;7.228;2022-07-30T10:41:58;6.10;;;2.43;;
35835;SDS011;21955;50.580;7.228;2022-07-30T10:44:37;7.20;;;2.38;;
35835;SDS011;21955;50.580;7.228;2022-07-30T10:47:20;6.00;;;2.22;;
35835;SDS011;21955;50.580;7.228;2022-07-30T10:50:08;5.32;;;2.50;;
35835;SDS011;21955;50.580;7.228;2022-07-30T10:52:43;6.65;;;2.60;;
35835;SDS011;21955;50.580;7.228;2022-07-30T10:55:11;4.57;;;2.33;;
35835;SDS011;21955;50.580;7.228;2022-07-30T10:57:55;4.72;;;1.90;;
35835;SDS011;21955;50.580;7.228;2022-07-30T11:00:23;4.68;;;1.95;;
35835;SDS011;21955;50.580;7.228;2022-07-30T11:03:11;2.53;;;1.50;;
35835;SDS011;21955;50.580;7.228;2022-07-30T11:05:38;3.78;;;1.50;;
35835;SDS011;21955;50.580;7.228;2022-07-30T11:10:51;2.97;;;1.60;;
35835;SDS011;21955;50.580;7.228;2022-07-30T11:13:23;5.28;;;2.00;;
35835;SDS011;21955;50.580;7.228;2022-07-30T11:16:06;3.13;;;1.90;;
35835;SDS011;21955;50.580;7.228;2022-07-30T11:19:00;3.63;;;1.55;;
35835;SDS011;21955;50.580;7.228;2022-07-30T11:21:30;3.72;;;1.70;;
35835;SDS011;21955;50.580;7.228;2022-07-30T11:24:01;5.22;;;1.90;;
35835;SDS011;21955;50.580;7.228;2022-07-30T11:29:33;3.00;;;1.50;;
35835;SDS011;21955;50.580;7.228;2022-07-30T11:34:48;2.95;;;1.70;;
35835;SDS011;21955;50.580;7.228;2022-07-30T11:37:15;4.13;;;1.80;;
35835;SDS011;21955;50.580;7.228;2022-07-30T11:42:46;5.70;;;1.80;;
35835;SDS011;21955;50.580;7.228;2022-07-30T11:45:23;4.13;;;2.15;;
35835;SDS011;21955;50.580;7.228;2022-07-30T11:47:57;2.83;;;1.90;;
35835;SDS011;21955;50.580;7.228;2022-07-30T11:50:31;2.83;;;1.90;;
35835;SDS011;21955;50.580;7.228;2022-07-30T11:52:59;5.90;;;1.85;;
35835;SDS011;21955;50.580;7.228;2022-07-30T11:55:28;4.43;;;2.17;;
35835;SDS011;21955;50.580;7.228;2022-07-30T11:57:56;4.23;;;1.90;;
35835;SDS011;21955;50.580;7.228;2022-07-30T12:00:24;3.53;;;1.90;;
35835;SDS011;21955;50.580;7.228;2022-07-30T12:02:51;3.07;;;1.60;;
35835;SDS011;21955;50.580;7.228;2022-07-30T12:05:22;2.78;;;1.70;;
35835;SDS011;21955;50.580;7.228;2022-07-30T12:07:51;3.67;;;1.80;;
35835;SDS011;21955;50.580;7.228;2022-07-30T12:10:22;3.72;;;1.95;;
35835;SDS011;21955;50.580;7.228;2022-07-30T12:12:51;3.20;;;1.73;;
35835;SDS011;21955;50.580;7.228;2022-07-30T12:15:27;3.80;;;1.80;;
35835;SDS011;21955;50.580;7.228;2022-07-30T12:17:54;2.78;;;1.90;;
35835;SDS011;21955;50.580;7.228;2022-07-30T12:20:22;4.70;;;1.85;;
35835;SDS011;21955;50.580;7.228;2022-07-30T12:22:52;6.00;;;2.10;;
35835;SDS011;21955;50.580;7.228;2022-07-30T12:25:20;4.43;;;1.90;;
35835;SDS011;21955;50.580;7.228;2022-07-30T12:27:47;4.15;;;1.60;;
35835;SDS011;21955;50.580;7.228;2022-07-30T12:30:15;3.72;;;1.75;;
35835;SDS011;21955;50.580;7.228;2022-07-30T12:32:43;3.75;;;1.95;;
35835;SDS011;21955;50.580;7.228;2022-07-30T12:35:10;3.90;;;1.80;;
35835;SDS011;21955;50.580;7.228;2022-07-30T12:37:38;3.17;;;1.75;;
35835;SDS011;21955;50.580;7.228;2022-07-30T12:40:09;3.50;;;2.20;;
35835;SDS011;21955;50.580;7.228;2022-07-30T12:42:37;3.15;;;1.73;;
35835;SDS011;21955;50.580;7.228;2022-07-30T12:45:24;3.53;;;1.70;;
35835;SDS011;21955;50.580;7.228;2022-07-30T12:47:52;4.07;;;2.17;;
35835;SDS011;21955;50.580;7.228;2022-07-30T12:50:19;4.85;;;2.10;;
35835;SDS011;21955;50.580;7.228;2022-07-30T12:52:47;3.45;;;1.70;;
35835;SDS011;21955;50.580;7.228;2022-07-30T12:55:16;4.32;;;1.83;;
35835;SDS011;21955;50.580;7.228;2022-07-30T12:57:50;4.17;;;2.00;;
35835;SDS011;21955;50.580;7.228;2022-07-30T13:00:18;4.88;;;2.28;;
35835;SDS011;21955;50.580;7.228;2022-07-30T13:02:45;4.55;;;2.10;;
35835;SDS011;21955;50.580;7.228;2022-07-30T13:05:12;4.38;;;2.00;;
35835;SDS011;21955;50.580;7.228;2022-07-30T13:07:55;3.40;;;1.97;;
35835;SDS011;21955;50.580;7.228;2022-07-30T13:10:24;4.25;;;1.90;;
35835;SDS011;21955;50.580;7.228;2022-07-30T13:12:51;5.50;;;3.15;;
35835;SDS011;21955;50.580;7.228;2022-07-30T13:15:19;3.53;;;2.05;;
35835;SDS011;21955;50.580;7.228;2022-07-30T13:17:47;4.93;;;2.20;;
35835;SDS011;21955;50.580;7.228;2022-07-30T13:20:15;4.80;;;2.40;;
35835;SDS011;21955;50.580;7.228;2022-07-30T13:22:42;4.60;;;2.25;;
35835;SDS011;21955;50.580;7.228;2022-07-30T13:25:10;5.80;;;2.30;;
35835;SDS011;21955;50.580;7.228;2022-07-30T13:27:38;5.22;;;2.30;;
35835;SDS011;21955;50.580;7.228;2022-07-30T13:30:06;3.78;;;2.20;;
35835;SDS011;21955;50.580;7.228;2022-07-30T13:32:36;5.65;;;2.40;;
35835;SDS011;21955;50.580;7.228;2022-07-30T13:35:07;7.55;;;2.40;;
35835;SDS011;21955;50.580;7.228;2022-07-30T13:37:36;3.75;;;2.17;;
35835;SDS011;21955;50.580;7.228;2022-07-30T13:40:04;7.25;;;2.47;;
35835;SDS011;21955;50.580;7.228;2022-07-30T13:42:35;5.03;;;2.30;;
35835;SDS011;21955;50.580;7.228;2022-07-30T13:45:08;7.05;;;2.88;;
35835;SDS011;21955;50.580;7.228;2022-07-30T13:47:35;5.38;;;2.30;;
35835;SDS011;21955;50.580;7.228;2022-07-30T13:50:02;4.65;;;2.15;;
35835;SDS011;21955;50.580;7.228;2022-07-30T13:52:29;6.38;;;2.22;;
35835;SDS011;21955;50.580;7.228;2022-07-30T13:54:56;5.55;;;2.60;;
35835;SDS011;21955;50.580;7.228;2022-07-30T13:57:23;6.10;;;2.40;;
35835;SDS011;21955;50.580;7.228;2022-07-30T13:59:51;4.67;;;2.43;;
35835;SDS011;21955;50.580;7.228;2022-07-30T14:02:19;5.18;;;2.28;;
35835;SDS011;21955;50.580;7.228;2022-07-30T14:04:46;4.23;;;2.40;;
35835;SDS011;21955;50.580;7.228;2022-07-30T14:07:13;5.40;;;2.20;;
35835;SDS011;21955;50.580;7.228;2022-07-30T14:09:40;4.93;;;2.10;;
35835;SDS011;21955;50.580;7.228;2022-07-30T14:12:07;4.13;;;2.13;;
35835;SDS011;21955;50.580;7.228;2022-07-30T14:14:35;3.95;;;1.90;;
35835;SDS011;21955;50.580;7.228;2022-07-30T14:17:02;4.88;;;2.20;;
35835;SDS011;21955;50.580;7.228;2022-07-30T14:19:30;6.18;;;2.85;;
35835;SDS011;21955;50.580;7.228;2022-07-30T14:21:57;4.32;;;2.00;;
35835;SDS011;21955;50.580;7.228;2022-07-30T14:24:25;5.20;;;2.03;;
35835;SDS011;21955;50.580;7.228;2022-07-30T14:26:52;4.28;;;2.20;;
35835;SDS011;21955;50.580;7.228;2022-07-30T14:29:19;8.30;;;2.30;;
35835;SDS011;21955;50.580;7.228;2022-07-30T14:31:46;5.78;;;2.42;;
35835;SDS011;21955;50.580;7.228;2022-07-30T14:34:13;4.38;;;1.83;;
35835;SDS011;21955;50.580;7.228;2022-07-30T14:36:42;5.13;;;2.00;;
35835;SDS011;21955;50.580;7.228;2022-07-30T14:39:09;3.63;;;1.80;;
35835;SDS011;21955;50.580;7.228;2022-07-30T14:41:36;5.53;;;2.47;;
35835;SDS011;21955;50.580;7.228;2022-07-30T14:44:07;4.68;;;2.20;;
35835;SDS011;21955;50.580;7.228;2022-07-30T14:46:36;4.85;;;2.30;;
35835;SDS011;21955;50.580;7.228;2022-07-30T14:49:03;4.07;;;2.27;;
35835;SDS011;21955;50.580;7.228;2022-07-30T14:51:32;6.67;;;2.50;;
35835;SDS011;21955;50.580;7.228;2022-07-30T14:54:01;5.40;;;2.42;;
35835;SDS011;21955;50.580;7.228;2022-07-30T14:56:28;5.93;;;2.35;;
35835;SDS011;21955;50.580;7.228;2022-07-30T14:58:56;6.47;;;2.63;;
35835;SDS011;21955;50.580;7.228;2022-07-30T15:01:23;5.18;;;2.25;;
35835;SDS011;21955;50.580;7.228;2022-07-30T15:03:50;6.82;;;2.20;;
35835;SDS011;21955;50.580;7.228;2022-07-30T15:06:17;6.32;;;2.33;;
35835;SDS011;21955;50.580;7.228;2022-07-30T15:08:44;5.40;;;1.90;;